sensor_id;sensor_type;location;lat;lon;timestamp;temperature;humidity
49184;DHT22;35021;49.214;12.270;2023-03-20T00:01:55;18.90;40.70
49184;DHT22;35021;49.214;12.270;2023-03-20T00:04:22;18.90;40.70
49184;DHT22;35021;49.214;12.270;2023-03-20T00:06:49;18.90;40.70
49184;DHT22;35021;49.214;12.270;2023-03-20T00:09:15;18.90;40.70
49184;DHT22;35021;49.214;12.270;2023-03-20T00:11:47;18.90;40.70
49184;DHT22;35021;49.214;12.270;2023-03-20T00:14:17;18.90;40.70
49184;DHT22;35021;49.214;12.270;2023-03-20T00:16:46;18.90;40.70
49184;DHT22;35021;49.214;12.270;2023-03-20T00:19:17;18.90;40.70
49184;DHT22;35021;49.214;12.270;2023-03-20T00:21:45;18.90;40.70
49184;DHT22;35021;49.214;12.270;2023-03-20T00:24:14;18.90;40.70
49184;DHT22;35021;49.214;12.270;2023-03-20T00:26:42;18.90;40.70
49184;DHT22;35021;49.214;12.270;2023-03-20T00:29:26;18.90;40.80
49184;DHT22;35021;49.214;12.270;2023-03-20T00:31:54;18.90;40.70
49184;DHT22;35021;49.214;12.270;2023-03-20T00:34:24;18.90;40.70
49184;DHT22;35021;49.214;12.270;2023-03-20T00:36:53;18.90;40.70
49184;DHT22;35021;49.214;12.270;2023-03-20T00:39:20;18.90;40.70
49184;DHT22;35021;49.214;12.270;2023-03-20T00:41:50;18.90;40.60
49184;DHT22;35021;49.214;12.270;2023-03-20T00:44:24;18.90;40.60
49184;DHT22;35021;49.214;12.270;2023-03-20T00:46:58;18.90;40.50
49184;DHT22;35021;49.214;12.270;2023-03-20T00:49:28;18.90;40.50
49184;DHT22;35021;49.214;12.270;2023-03-20T00:51:55;18.90;40.50
49184;DHT22;35021;49.214;12.270;2023-03-20T00:54:24;18.90;40.40
49184;DHT22;35021;49.214;12.270;2023-03-20T00:56:58;18.90;40.40
49184;DHT22;35021;49.214;12.270;2023-03-20T00:59:31;18.90;40.40
49184;DHT22;35021;49.214;12.270;2023-03-20T01:02:00;18.90;40.30
49184;DHT22;35021;49.214;12.270;2023-03-20T01:04:34;18.90;40.20
49184;DHT22;35021;49.214;12.270;2023-03-20T01:07:02;18.90;40.20
49184;DHT22;35021;49.214;12.270;2023-03-20T01:09:29;18.90;40.20
49184;DHT22;35021;49.214;12.270;2023-03-20T01:11:58;18.90;40.10
49184;DHT22;35021;49.214;12.270;2023-03-20T01:14:25;18.90;40.10
49184;DHT22;35021;49.214;12.270;2023-03-20T01:16:52;18.90;40.00
49184;DHT22;35021;49.214;12.270;2023-03-20T01:19:20;18.90;40.00
49184;DHT22;35021;49.214;12.270;2023-03-20T01:21:47;18.80;39.80
49184;DHT22;35021;49.214;12.270;2023-03-20T01:24:13;18.80;39.80
49184;DHT22;35021;49.214;12.270;2023-03-20T01:26:42;18.80;39.80
49184;DHT22;35021;49.214;12.270;2023-03-20T01:29:27;18.80;39.80
49184;DHT22;35021;49.214;12.270;2023-03-20T01:31:53;18.80;39.80
49184;DHT22;35021;49.214;12.270;2023-03-20T01:34:21;18.80;39.80
49184;DHT22;35021;49.214;12.270;2023-03-20T01:36:52;18.80;39.80
49184;DHT22;35021;49.214;12.270;2023-03-20T01:39:20;18.80;39.80
49184;DHT22;35021;49.214;12.270;2023-03-20T01:41:51;18.80;39.80
49184;DHT22;35021;49.214;12.270;2023-03-20T01:44:31;18.80;39.80
49184;DHT22;35021;49.214;12.270;2023-03-20T01:47:01;18.80;39.80
49184;DHT22;35021;49.214;12.270;2023-03-20T01:51:56;18.80;39.80
49184;DHT22;35021;49.214;12.270;2023-03-20T01:54:29;18.80;39.90
49184;DHT22;35021;49.214;12.270;2023-03-20T01:57:15;18.70;39.90
49184;DHT22;35021;49.214;12.270;2023-03-20T01:59:56;18.70;40.00
49184;DHT22;35021;49.214;12.270;2023-03-20T02:02:29;18.70;40.10
49184;DHT22;35021;49.214;12.270;2023-03-20T02:04:59;18.70;40.20
49184;DHT22;35021;49.214;12.270;2023-03-20T02:07:30;18.70;40.40
49184;DHT22;35021;49.214;12.270;2023-03-20T02:09:58;18.60;40.50
49184;DHT22;35021;49.214;12.270;2023-03-20T02:12:26;18.60;40.50
49184;DHT22;35021;49.214;12.270;2023-03-20T02:14:53;18.60;40.60
49184;DHT22;35021;49.214;12.270;2023-03-20T02:17:19;18.60;40.70
49184;DHT22;35021;49.214;12.270;2023-03-20T02:20:09;18.60;40.70
49184;DHT22;35021;49.214;12.270;2023-03-20T02:28:41;18.50;40.90
49184;DHT22;35021;49.214;12.270;2023-03-20T02:39:55;18.50;41.30
49184;DHT22;35021;49.214;12.270;2023-03-20T02:42:30;18.50;41.30
49184;DHT22;35021;49.214;12.270;2023-03-20T02:47:47;18.60;41.40
49184;DHT22;35021;49.214;12.270;2023-03-20T02:50:30;18.60;41.20
49184;DHT22;35021;49.214;12.270;2023-03-20T02:56:17;18.80;41.10
49184;DHT22;35021;49.214;12.270;2023-03-20T02:59:37;18.90;40.90
49184;DHT22;35021;49.214;12.270;2023-03-20T03:01:50;18.90;40.80
49184;DHT22;35021;49.214;12.270;2023-03-20T03:04:22;19.00;40.60
49184;DHT22;35021;49.214;12.270;2023-03-20T03:06:52;19.10;40.50
49184;DHT22;35021;49.214;12.270;2023-03-20T03:09:22;19.20;40.30
49184;DHT22;35021;49.214;12.270;2023-03-20T03:12:04;19.30;40.10
49184;DHT22;35021;49.214;12.270;2023-03-20T03:14:40;19.30;39.90
49184;DHT22;35021;49.214;12.270;2023-03-20T03:17:10;19.30;39.80
49184;DHT22;35021;49.214;12.270;2023-03-20T03:19:41;19.40;39.80
49184;DHT22;35021;49.214;12.270;2023-03-20T03:22:09;19.40;39.80
49184;DHT22;35021;49.214;12.270;2023-03-20T03:24:43;19.40;39.80
49184;DHT22;35021;49.214;12.270;2023-03-20T03:27:26;19.30;39.70
49184;DHT22;35021;49.214;12.270;2023-03-20T03:29:59;19.30;39.70
49184;DHT22;35021;49.214;12.270;2023-03-20T03:32:49;19.30;39.80
49184;DHT22;35021;49.214;12.270;2023-03-20T03:35:19;19.30;39.90
49184;DHT22;35021;49.214;12.270;2023-03-20T03:40:57;19.30;39.80
49184;DHT22;35021;49.214;12.270;2023-03-20T03:43:57;19.40;39.80
49184;DHT22;35021;49.214;12.270;2023-03-20T03:49:03;19.50;39.60
49184;DHT22;35021;49.214;12.270;2023-03-20T03:51:33;19.50;39.50
49184;DHT22;35021;49.214;12.270;2023-03-20T03:54:09;19.50;39.30
49184;DHT22;35021;49.214;12.270;2023-03-20T03:56:38;19.60;39.30
49184;DHT22;35021;49.214;12.270;2023-03-20T03:59:19;19.60;39.20
49184;DHT22;35021;49.214;12.270;2023-03-20T04:01:49;19.70;39.20
49184;DHT22;35021;49.214;12.270;2023-03-20T04:04:18;19.70;39.20
49184;DHT22;35021;49.214;12.270;2023-03-20T04:06:46;19.70;39.30
49184;DHT22;35021;49.214;12.270;2023-03-20T04:09:13;19.60;39.20
49184;DHT22;35021;49.214;12.270;2023-03-20T04:11:40;19.60;39.30
49184;DHT22;35021;49.214;12.270;2023-03-20T04:14:07;19.60;39.40
49184;DHT22;35021;49.214;12.270;2023-03-20T04:16:33;19.50;39.50
49184;DHT22;35021;49.214;12.270;2023-03-20T04:19:01;19.50;39.60
49184;DHT22;35021;49.214;12.270;2023-03-20T04:21:27;19.40;39.70
49184;DHT22;35021;49.214;12.270;2023-03-20T04:23:54;19.30;39.80
49184;DHT22;35021;49.214;12.270;2023-03-20T04:26:22;19.30;39.90
49184;DHT22;35021;49.214;12.270;2023-03-20T04:28:50;19.20;39.90
49184;DHT22;35021;49.214;12.270;2023-03-20T04:31:17;19.20;40.00
49184;DHT22;35021;49.214;12.270;2023-03-20T04:33:45;19.20;40.10
49184;DHT22;35021;49.214;12.270;2023-03-20T04:36:12;19.20;40.10
49184;DHT22;35021;49.214;12.270;2023-03-20T04:38:40;19.20;40.10
49184;DHT22;35021;49.214;12.270;2023-03-20T04:41:06;19.20;40.10
49184;DHT22;35021;49.214;12.270;2023-03-20T04:43:34;19.20;40.10
49184;DHT22;35021;49.214;12.270;2023-03-20T04:46:01;19.20;40.10
49184;DHT22;35021;49.214;12.270;2023-03-20T04:48:28;19.20;40.00
49184;DHT22;35021;49.214;12.270;2023-03-20T04:50:55;19.20;39.90
49184;DHT22;35021;49.214;12.270;2023-03-20T04:53:22;19.20;40.00
49184;DHT22;35021;49.214;12.270;2023-03-20T04:55:52;19.20;40.00
49184;DHT22;35021;49.214;12.270;2023-03-20T04:58:19;19.20;40.10
49184;DHT22;35021;49.214;12.270;2023-03-20T05:00:46;19.20;40.20
49184;DHT22;35021;49.214;12.270;2023-03-20T05:03:13;19.10;40.20
49184;DHT22;35021;49.214;12.270;2023-03-20T05:05:39;19.00;40.30
49184;DHT22;35021;49.214;12.270;2023-03-20T05:08:06;19.00;40.40
49184;DHT22;35021;49.214;12.270;2023-03-20T05:10:33;18.90;40.40
49184;DHT22;35021;49.214;12.270;2023-03-20T05:13:00;18.90;40.50
49184;DHT22;35021;49.214;12.270;2023-03-20T05:15:27;18.90;40.50
49184;DHT22;35021;49.214;12.270;2023-03-20T05:17:54;18.90;40.50
49184;DHT22;35021;49.214;12.270;2023-03-20T05:20:21;18.90;40.40
49184;DHT22;35021;49.214;12.270;2023-03-20T05:22:49;19.00;40.50
49184;DHT22;35021;49.214;12.270;2023-03-20T05:25:16;19.00;40.40
49184;DHT22;35021;49.214;12.270;2023-03-20T05:27:44;19.00;40.30
49184;DHT22;35021;49.214;12.270;2023-03-20T05:30:13;19.10;40.30
49184;DHT22;35021;49.214;12.270;2023-03-20T05:32:40;19.10;40.20
49184;DHT22;35021;49.214;12.270;2023-03-20T05:35:09;19.10;40.10
49184;DHT22;35021;49.214;12.270;2023-03-20T05:37:37;19.10;40.10
49184;DHT22;35021;49.214;12.270;2023-03-20T05:40:04;19.10;40.10
49184;DHT22;35021;49.214;12.270;2023-03-20T05:42:31;19.10;40.20
49184;DHT22;35021;49.214;12.270;2023-03-20T05:44:58;19.10;40.20
49184;DHT22;35021;49.214;12.270;2023-03-20T05:47:26;19.00;40.20
49184;DHT22;35021;49.214;12.270;2023-03-20T05:49:52;19.00;40.30
49184;DHT22;35021;49.214;12.270;2023-03-20T05:52:19;19.00;40.40
49184;DHT22;35021;49.214;12.270;2023-03-20T05:54:46;18.90;40.40
49184;DHT22;35021;49.214;12.270;2023-03-20T05:57:13;18.90;40.40
49184;DHT22;35021;49.214;12.270;2023-03-20T05:59:41;18.90;40.50
49184;DHT22;35021;49.214;12.270;2023-03-20T06:02:08;18.90;40.50
49184;DHT22;35021;49.214;12.270;2023-03-20T06:04:34;18.90;40.50
49184;DHT22;35021;49.214;12.270;2023-03-20T06:07:03;18.90;40.60
49184;DHT22;35021;49.214;12.270;2023-03-20T06:09:30;18.90;40.50
49184;DHT22;35021;49.214;12.270;2023-03-20T06:11:58;18.90;40.50
49184;DHT22;35021;49.214;12.270;2023-03-20T06:14:25;19.00;40.50
49184;DHT22;35021;49.214;12.270;2023-03-20T06:16:52;19.00;40.50
49184;DHT22;35021;49.214;12.270;2023-03-20T06:19:20;19.10;40.50
49184;DHT22;35021;49.214;12.270;2023-03-20T06:21:48;19.10;40.40
49184;DHT22;35021;49.214;12.270;2023-03-20T06:24:15;19.10;40.30
49184;DHT22;35021;49.214;12.270;2023-03-20T06:26:42;19.20;40.20
49184;DHT22;35021;49.214;12.270;2023-03-20T06:29:09;19.20;40.20
49184;DHT22;35021;49.214;12.270;2023-03-20T06:31:36;19.20;40.10
49184;DHT22;35021;49.214;12.270;2023-03-20T06:34:03;19.20;40.80
49184;DHT22;35021;49.214;12.270;2023-03-20T06:36:30;19.20;40.20
49184;DHT22;35021;49.214;12.270;2023-03-20T06:38:57;19.20;40.30
49184;DHT22;35021;49.214;12.270;2023-03-20T06:41:25;19.10;40.40
49184;DHT22;35021;49.214;12.270;2023-03-20T06:44:00;19.10;40.60
49184;DHT22;35021;49.214;12.270;2023-03-20T06:46:27;19.00;40.60
49184;DHT22;35021;49.214;12.270;2023-03-20T06:48:54;19.00;41.40
49184;DHT22;35021;49.214;12.270;2023-03-20T06:51:21;19.00;40.70
49184;DHT22;35021;49.214;12.270;2023-03-20T06:53:48;19.10;40.80
49184;DHT22;35021;49.214;12.270;2023-03-20T06:56:15;19.10;40.70
49184;DHT22;35021;49.214;12.270;2023-03-20T06:58:42;19.10;40.80
49184;DHT22;35021;49.214;12.270;2023-03-20T07:01:14;19.20;40.80
49184;DHT22;35021;49.214;12.270;2023-03-20T07:03:42;19.20;40.60
49184;DHT22;35021;49.214;12.270;2023-03-20T07:06:09;19.30;40.60
49184;DHT22;35021;49.214;12.270;2023-03-20T07:08:38;19.30;40.60
49184;DHT22;35021;49.214;12.270;2023-03-20T07:11:05;19.30;40.50
49184;DHT22;35021;49.214;12.270;2023-03-20T07:13:32;19.40;40.50
49184;DHT22;35021;49.214;12.270;2023-03-20T07:16:00;19.40;40.50
49184;DHT22;35021;49.214;12.270;2023-03-20T07:18:31;19.40;40.50
49184;DHT22;35021;49.214;12.270;2023-03-20T07:21:02;19.40;40.60
49184;DHT22;35021;49.214;12.270;2023-03-20T07:23:31;19.40;40.60
49184;DHT22;35021;49.214;12.270;2023-03-20T07:26:00;19.40;40.70
49184;DHT22;35021;49.214;12.270;2023-03-20T07:28:27;19.30;40.80
49184;DHT22;35021;49.214;12.270;2023-03-20T07:30:54;19.30;40.90
49184;DHT22;35021;49.214;12.270;2023-03-20T07:33:21;19.30;40.90
49184;DHT22;35021;49.214;12.270;2023-03-20T07:35:51;19.30;41.00
49184;DHT22;35021;49.214;12.270;2023-03-20T07:38:19;19.40;41.10
49184;DHT22;35021;49.214;12.270;2023-03-20T07:40:47;19.40;41.10
49184;DHT22;35021;49.214;12.270;2023-03-20T07:43:15;19.40;41.00
49184;DHT22;35021;49.214;12.270;2023-03-20T07:45:42;19.50;41.10
49184;DHT22;35021;49.214;12.270;2023-03-20T07:48:09;19.50;41.00
49184;DHT22;35021;49.214;12.270;2023-03-20T07:50:37;19.60;41.10
49184;DHT22;35021;49.214;12.270;2023-03-20T07:53:03;19.60;41.10
49184;DHT22;35021;49.214;12.270;2023-03-20T07:55:30;19.60;41.10
49184;DHT22;35021;49.214;12.270;2023-03-20T07:57:57;19.60;41.30
49184;DHT22;35021;49.214;12.270;2023-03-20T08:00:24;19.50;41.50
49184;DHT22;35021;49.214;12.270;2023-03-20T08:02:53;19.50;41.70
49184;DHT22;35021;49.214;12.270;2023-03-20T08:05:23;19.40;41.90
49184;DHT22;35021;49.214;12.270;2023-03-20T08:07:50;19.40;42.00
49184;DHT22;35021;49.214;12.270;2023-03-20T08:10:17;19.30;42.30
49184;DHT22;35021;49.214;12.270;2023-03-20T08:12:45;19.20;42.50
49184;DHT22;35021;49.214;12.270;2023-03-20T08:15:11;19.10;42.70
49184;DHT22;35021;49.214;12.270;2023-03-20T08:17:45;19.10;43.00
49184;DHT22;35021;49.214;12.270;2023-03-20T08:20:13;19.10;43.20
49184;DHT22;35021;49.214;12.270;2023-03-20T08:22:40;19.10;43.40
49184;DHT22;35021;49.214;12.270;2023-03-20T08:25:09;19.10;43.50
49184;DHT22;35021;49.214;12.270;2023-03-20T08:27:37;19.20;43.70
49184;DHT22;35021;49.214;12.270;2023-03-20T08:30:04;19.20;43.80
49184;DHT22;35021;49.214;12.270;2023-03-20T08:32:32;19.30;44.00
49184;DHT22;35021;49.214;12.270;2023-03-20T08:34:59;19.30;44.20
49184;DHT22;35021;49.214;12.270;2023-03-20T08:37:27;19.40;44.30
49184;DHT22;35021;49.214;12.270;2023-03-20T08:39:54;19.50;44.50
49184;DHT22;35021;49.214;12.270;2023-03-20T08:42:21;19.50;44.60
49184;DHT22;35021;49.214;12.270;2023-03-20T08:44:48;19.50;44.50
49184;DHT22;35021;49.214;12.270;2023-03-20T08:47:15;19.60;44.60
49184;DHT22;35021;49.214;12.270;2023-03-20T08:49:42;19.60;44.80
49184;DHT22;35021;49.214;12.270;2023-03-20T08:52:10;19.60;44.90
49184;DHT22;35021;49.214;12.270;2023-03-20T08:54:37;19.60;45.00
49184;DHT22;35021;49.214;12.270;2023-03-20T08:57:03;19.60;45.10
49184;DHT22;35021;49.214;12.270;2023-03-20T08:59:31;19.60;45.20
49184;DHT22;35021;49.214;12.270;2023-03-20T09:01:58;19.60;45.20
49184;DHT22;35021;49.214;12.270;2023-03-20T09:04:25;19.60;45.30
49184;DHT22;35021;49.214;12.270;2023-03-20T09:06:52;19.60;45.30
49184;DHT22;35021;49.214;12.270;2023-03-20T09:09:21;19.70;45.40
49184;DHT22;35021;49.214;12.270;2023-03-20T09:11:52;19.70;45.30
49184;DHT22;35021;49.214;12.270;2023-03-20T09:14:19;19.80;45.30
49184;DHT22;35021;49.214;12.270;2023-03-20T09:16:46;19.80;45.20
49184;DHT22;35021;49.214;12.270;2023-03-20T09:19:13;19.90;45.20
49184;DHT22;35021;49.214;12.270;2023-03-20T09:21:41;19.90;45.90
49184;DHT22;35021;49.214;12.270;2023-03-20T09:24:08;19.90;45.30
49184;DHT22;35021;49.214;12.270;2023-03-20T09:26:35;20.00;45.40
49184;DHT22;35021;49.214;12.270;2023-03-20T09:29:02;20.00;45.30
49184;DHT22;35021;49.214;12.270;2023-03-20T09:31:29;20.00;45.30
49184;DHT22;35021;49.214;12.270;2023-03-20T09:33:56;20.00;45.20
49184;DHT22;35021;49.214;12.270;2023-03-20T09:36:24;19.90;45.20
49184;DHT22;35021;49.214;12.270;2023-03-20T09:38:51;19.90;45.30
49184;DHT22;35021;49.214;12.270;2023-03-20T09:41:22;19.90;45.50
49184;DHT22;35021;49.214;12.270;2023-03-20T09:43:57;19.90;45.50
49184;DHT22;35021;49.214;12.270;2023-03-20T09:46:52;20.00;45.50
49184;DHT22;35021;49.214;12.270;2023-03-20T09:49:44;19.90;45.50
49184;DHT22;35021;49.214;12.270;2023-03-20T09:52:20;20.00;45.60
49184;DHT22;35021;49.214;12.270;2023-03-20T09:54:53;20.00;45.60
49184;DHT22;35021;49.214;12.270;2023-03-20T09:57:51;20.00;45.60
49184;DHT22;35021;49.214;12.270;2023-03-20T10:00:27;20.10;45.50
49184;DHT22;35021;49.214;12.270;2023-03-20T10:03:20;20.10;45.50
49184;DHT22;35021;49.214;12.270;2023-03-20T10:05:53;20.10;45.40
49184;DHT22;35021;49.214;12.270;2023-03-20T10:08:31;20.20;45.50
49184;DHT22;35021;49.214;12.270;2023-03-20T10:11:12;20.20;45.50
49184;DHT22;35021;49.214;12.270;2023-03-20T10:19:32;20.30;45.30
49184;DHT22;35021;49.214;12.270;2023-03-20T10:27:40;20.50;45.00
49184;DHT22;35021;49.214;12.270;2023-03-20T10:30:22;20.60;44.90
49184;DHT22;35021;49.214;12.270;2023-03-20T10:41:42;20.70;44.70
49184;DHT22;35021;49.214;12.270;2023-03-20T10:44:21;20.80;44.80
49184;DHT22;35021;49.214;12.270;2023-03-20T10:46:53;20.80;44.80
49184;DHT22;35021;49.214;12.270;2023-03-20T10:49:31;20.90;44.80
49184;DHT22;35021;49.214;12.270;2023-03-20T10:52:08;21.00;44.80
49184;DHT22;35021;49.214;12.270;2023-03-20T10:54:41;21.00;44.80
49184;DHT22;35021;49.214;12.270;2023-03-20T10:57:23;21.10;44.70
49184;DHT22;35021;49.214;12.270;2023-03-20T10:59:51;21.10;44.50
49184;DHT22;35021;49.214;12.270;2023-03-20T11:02:23;21.20;44.40
49184;DHT22;35021;49.214;12.270;2023-03-20T11:04:51;21.20;44.10
49184;DHT22;35021;49.214;12.270;2023-03-20T11:07:26;21.30;44.00
49184;DHT22;35021;49.214;12.270;2023-03-20T11:10:13;21.30;43.70
49184;DHT22;35021;49.214;12.270;2023-03-20T11:12:47;21.40;43.60
49184;DHT22;35021;49.214;12.270;2023-03-20T11:18:03;21.50;43.20
49184;DHT22;35021;49.214;12.270;2023-03-20T11:20:38;21.60;43.00
49184;DHT22;35021;49.214;12.270;2023-03-20T11:23:14;21.60;42.90
49184;DHT22;35021;49.214;12.270;2023-03-20T11:25:57;21.60;42.70
49184;DHT22;35021;49.214;12.270;2023-03-20T11:28:35;21.60;42.70
49184;DHT22;35021;49.214;12.270;2023-03-20T11:33:44;21.60;42.70
49184;DHT22;35021;49.214;12.270;2023-03-20T11:36:31;21.60;42.80
49184;DHT22;35021;49.214;12.270;2023-03-20T11:39:24;21.60;42.80
49184;DHT22;35021;49.214;12.270;2023-03-20T11:41:56;21.60;42.80
49184;DHT22;35021;49.214;12.270;2023-03-20T11:44:31;21.60;42.70
49184;DHT22;35021;49.214;12.270;2023-03-20T11:49:57;21.50;42.40
49184;DHT22;35021;49.214;12.270;2023-03-20T11:52:29;21.50;42.50
49184;DHT22;35021;49.214;12.270;2023-03-20T11:55:02;21.50;42.40
49184;DHT22;35021;49.214;12.270;2023-03-20T11:57:35;21.50;42.30
49184;DHT22;35021;49.214;12.270;2023-03-20T12:00:20;21.50;42.40
49184;DHT22;35021;49.214;12.270;2023-03-20T12:02:48;21.50;42.30
49184;DHT22;35021;49.214;12.270;2023-03-20T12:05:36;21.50;42.30
49184;DHT22;35021;49.214;12.270;2023-03-20T12:08:16;21.40;42.20
49184;DHT22;35021;49.214;12.270;2023-03-20T12:10:52;21.40;42.10
49184;DHT22;35021;49.214;12.270;2023-03-20T12:13:26;21.30;42.10
49184;DHT22;35021;49.214;12.270;2023-03-20T12:15:58;21.30;42.20
49184;DHT22;35021;49.214;12.270;2023-03-20T12:21:04;21.20;42.00
49184;DHT22;35021;49.214;12.270;2023-03-20T12:26:31;21.20;42.10
49184;DHT22;35021;49.214;12.270;2023-03-20T12:32:23;21.10;42.20
49184;DHT22;35021;49.214;12.270;2023-03-20T12:35:25;21.10;42.10
49184;DHT22;35021;49.214;12.270;2023-03-20T12:37:53;21.00;42.10
49184;DHT22;35021;49.214;12.270;2023-03-20T12:40:38;21.00;42.10
49184;DHT22;35021;49.214;12.270;2023-03-20T12:43:24;20.90;42.20
49184;DHT22;35021;49.214;12.270;2023-03-20T12:46:08;20.80;42.40
49184;DHT22;35021;49.214;12.270;2023-03-20T12:54:27;20.70;42.90
49184;DHT22;35021;49.214;12.270;2023-03-20T13:10:35;20.70;43.00
49184;DHT22;35021;49.214;12.270;2023-03-20T13:13:14;20.60;42.90
49184;DHT22;35021;49.214;12.270;2023-03-20T13:19:06;20.60;42.90
49184;DHT22;35021;49.214;12.270;2023-03-20T13:21:48;20.60;42.90
49184;DHT22;35021;49.214;12.270;2023-03-20T13:24:54;20.50;43.00
49184;DHT22;35021;49.214;12.270;2023-03-20T13:28:01;20.50;43.00
49184;DHT22;35021;49.214;12.270;2023-03-20T13:33:31;20.50;43.00
49184;DHT22;35021;49.214;12.270;2023-03-20T13:39:17;20.50;42.90
49184;DHT22;35021;49.214;12.270;2023-03-20T13:41:46;20.50;42.90
49184;DHT22;35021;49.214;12.270;2023-03-20T13:44:17;20.50;42.90
49184;DHT22;35021;49.214;12.270;2023-03-20T13:46:52;20.50;42.90
49184;DHT22;35021;49.214;12.270;2023-03-20T13:52:34;20.50;42.90
49184;DHT22;35021;49.214;12.270;2023-03-20T13:55:26;20.50;42.80
49184;DHT22;35021;49.214;12.270;2023-03-20T14:03:38;20.50;42.70
49184;DHT22;35021;49.214;12.270;2023-03-20T14:08:58;20.50;42.50
49184;DHT22;35021;49.214;12.270;2023-03-20T14:11:34;20.50;42.40
49184;DHT22;35021;49.214;12.270;2023-03-20T14:14:07;20.60;42.30
49184;DHT22;35021;49.214;12.270;2023-03-20T14:16:38;20.60;42.20
49184;DHT22;35021;49.214;12.270;2023-03-20T14:19:32;20.60;42.20
49184;DHT22;35021;49.214;12.270;2023-03-20T14:22:00;20.60;42.10
49184;DHT22;35021;49.214;12.270;2023-03-20T14:24:27;20.60;42.00
49184;DHT22;35021;49.214;12.270;2023-03-20T14:26:57;20.60;42.00
49184;DHT22;35021;49.214;12.270;2023-03-20T14:29:37;20.60;42.00
49184;DHT22;35021;49.214;12.270;2023-03-20T14:32:31;20.60;41.90
49184;DHT22;35021;49.214;12.270;2023-03-20T14:35:17;20.50;42.00
49184;DHT22;35021;49.214;12.270;2023-03-20T14:38:22;20.50;42.00
49184;DHT22;35021;49.214;12.270;2023-03-20T14:41:13;20.40;42.00
49184;DHT22;35021;49.214;12.270;2023-03-20T14:43:55;20.30;42.00
49184;DHT22;35021;49.214;12.270;2023-03-20T14:48:54;20.20;42.40
49184;DHT22;35021;49.214;12.270;2023-03-20T14:51:42;20.20;42.40
49184;DHT22;35021;49.214;12.270;2023-03-20T14:57:29;20.20;42.50
49184;DHT22;35021;49.214;12.270;2023-03-20T14:59:56;20.10;42.50
49184;DHT22;35021;49.214;12.270;2023-03-20T15:02:33;20.00;42.40
49184;DHT22;35021;49.214;12.270;2023-03-20T15:05:02;20.00;42.50
49184;DHT22;35021;49.214;12.270;2023-03-20T15:07:34;20.00;42.50
49184;DHT22;35021;49.214;12.270;2023-03-20T15:10:04;20.00;42.50
49184;DHT22;35021;49.214;12.270;2023-03-20T15:12:34;20.00;42.50
49184;DHT22;35021;49.214;12.270;2023-03-20T15:15:05;19.90;42.50
49184;DHT22;35021;49.214;12.270;2023-03-20T15:17:43;19.90;42.50
49184;DHT22;35021;49.214;12.270;2023-03-20T15:22:48;19.90;42.70
49184;DHT22;35021;49.214;12.270;2023-03-20T15:25:18;19.90;42.80
49184;DHT22;35021;49.214;12.270;2023-03-20T15:27:46;19.80;42.80
49184;DHT22;35021;49.214;12.270;2023-03-20T15:30:18;19.80;42.90
49184;DHT22;35021;49.214;12.270;2023-03-20T15:32:47;19.70;43.00
49184;DHT22;35021;49.214;12.270;2023-03-20T15:35:22;19.70;43.10
49184;DHT22;35021;49.214;12.270;2023-03-20T15:37:50;19.70;43.20
49184;DHT22;35021;49.214;12.270;2023-03-20T15:40:23;19.60;43.20
49184;DHT22;35021;49.214;12.270;2023-03-20T15:43:06;19.60;43.30
49184;DHT22;35021;49.214;12.270;2023-03-20T15:45:39;19.60;43.30
49184;DHT22;35021;49.214;12.270;2023-03-20T15:48:15;19.60;43.40
49184;DHT22;35021;49.214;12.270;2023-03-20T15:50:50;19.60;43.40
49184;DHT22;35021;49.214;12.270;2023-03-20T15:53:20;19.60;43.40
49184;DHT22;35021;49.214;12.270;2023-03-20T15:56:07;19.60;43.40
49184;DHT22;35021;49.214;12.270;2023-03-20T15:58:45;19.60;43.40
49184;DHT22;35021;49.214;12.270;2023-03-20T16:01:24;19.60;43.40
49184;DHT22;35021;49.214;12.270;2023-03-20T16:03:56;19.60;43.40
49184;DHT22;35021;49.214;12.270;2023-03-20T16:06:24;19.50;43.40
49184;DHT22;35021;49.214;12.270;2023-03-20T16:09:04;19.50;43.50
49184;DHT22;35021;49.214;12.270;2023-03-20T16:11:40;19.50;43.40
49184;DHT22;35021;49.214;12.270;2023-03-20T16:14:13;19.60;43.50
49184;DHT22;35021;49.214;12.270;2023-03-20T16:16:41;19.50;43.40
49184;DHT22;35021;49.214;12.270;2023-03-20T16:19:11;19.50;43.40
49184;DHT22;35021;49.214;12.270;2023-03-20T16:21:39;19.50;43.40
49184;DHT22;35021;49.214;12.270;2023-03-20T16:24:16;19.60;43.50
49184;DHT22;35021;49.214;12.270;2023-03-20T16:26:48;19.60;43.50
49184;DHT22;35021;49.214;12.270;2023-03-20T16:29:17;19.60;43.60
49184;DHT22;35021;49.214;12.270;2023-03-20T16:31:48;19.60;43.60
49184;DHT22;35021;49.214;12.270;2023-03-20T16:34:24;19.60;43.60
49184;DHT22;35021;49.214;12.270;2023-03-20T16:36:56;19.60;43.60
49184;DHT22;35021;49.214;12.270;2023-03-20T16:39:27;19.60;43.60
49184;DHT22;35021;49.214;12.270;2023-03-20T16:44:33;19.50;43.70
49184;DHT22;35021;49.214;12.270;2023-03-20T16:47:19;19.50;43.70
49184;DHT22;35021;49.214;12.270;2023-03-20T16:50:11;19.50;43.80
49184;DHT22;35021;49.214;12.270;2023-03-20T16:52:45;19.40;43.90
49184;DHT22;35021;49.214;12.270;2023-03-20T16:55:15;19.40;43.90
49184;DHT22;35021;49.214;12.270;2023-03-20T16:57:46;19.40;44.10
49184;DHT22;35021;49.214;12.270;2023-03-20T17:00:31;19.40;44.20
49184;DHT22;35021;49.214;12.270;2023-03-20T17:03:12;19.40;44.40
49184;DHT22;35021;49.214;12.270;2023-03-20T17:05:47;19.30;44.40
49184;DHT22;35021;49.214;12.270;2023-03-20T17:08:21;19.30;44.40
49184;DHT22;35021;49.214;12.270;2023-03-20T17:10:56;19.30;44.50
49184;DHT22;35021;49.214;12.270;2023-03-20T17:13:23;19.30;44.50
49184;DHT22;35021;49.214;12.270;2023-03-20T17:15:50;19.30;44.50
49184;DHT22;35021;49.214;12.270;2023-03-20T17:18:17;19.30;44.60
49184;DHT22;35021;49.214;12.270;2023-03-20T17:20:45;19.30;44.60
49184;DHT22;35021;49.214;12.270;2023-03-20T17:23:18;19.20;44.60
49184;DHT22;35021;49.214;12.270;2023-03-20T17:25:46;19.20;44.60
49184;DHT22;35021;49.214;12.270;2023-03-20T17:28:22;19.20;44.60
49184;DHT22;35021;49.214;12.270;2023-03-20T17:30:51;19.20;44.70
49184;DHT22;35021;49.214;12.270;2023-03-20T17:33:19;19.10;44.80
49184;DHT22;35021;49.214;12.270;2023-03-20T17:35:47;19.10;44.90
49184;DHT22;35021;49.214;12.270;2023-03-20T17:38:16;19.10;45.00
49184;DHT22;35021;49.214;12.270;2023-03-20T17:40:44;19.10;44.90
49184;DHT22;35021;49.214;12.270;2023-03-20T17:43:12;19.10;44.90